Time;durP1;ratioP1;P1;durP2;ratioP2;P2;SDS_P1;SDS_P2;PMS_P1;PMS_P2;Temp;Humidity;BMP_temperature;BMP_pressure;BME280_temperature;BME280_humidity;BME280_pressure;Samples;Min_cycle;Max_cycle;Signal;HPM_P1;HPM_P2
2021/07/08 00:01:28;;;;;;;6.28;4.28;;;17.30;93.60;;;;;;5088160;28;20032;-67
2021/07/08 00:03:53;;;;;;;3.97;3.58;;;17.20;93.70;;;;;;5088635;28;20527;-67
2021/07/08 00:06:19;;;;;;;4.45;4.05;;;17.20;93.80;;;;;;5087057;28;20068;-66
2021/07/08 00:08:44;;;;;;;4.65;3.50;;;17.20;93.80;;;;;;5085008;28;20081;-67
2021/07/08 00:11:10;;;;;;;3.20;2.90;;;17.10;93.90;;;;;;5086112;28;20099;-67
2021/07/08 00:13:35;;;;;;;3.25;2.95;;;17.00;94.00;;;;;;5085349;28;20095;-67
2021/07/08 00:16:01;;;;;;;4.45;3.00;;;17.00;94.00;;;;;;5077154;28;20115;-67
2021/07/08 00:18:27;;;;;;;4.07;3.10;;;16.90;94.10;;;;;;5085074;28;20032;-67
2021/07/08 00:20:53;;;;;;;4.00;2.88;;;16.90;94.20;;;;;;5081104;28;20028;-67
2021/07/08 00:23:20;;;;;;;3.38;3.08;;;16.90;94.30;;;;;;5083572;28;20169;-67
2021/07/08 00:25:48;;;;;;;4.25;3.13;;;16.80;94.30;;;;;;5085077;28;20110;-67
2021/07/08 00:28:15;;;;;;;3.33;3.03;;;16.80;94.40;;;;;;5085198;28;20400;-67
2021/07/08 00:30:43;;;;;;;3.72;3.00;;;16.80;94.40;;;;;;5086903;28;20019;-67
2021/07/08 00:33:10;;;;;;;4.35;3.05;;;16.80;94.50;;;;;;5085190;28;20016;-67
2021/07/08 00:35:36;;;;;;;2.75;2.30;;;16.80;94.50;;;;;;5085131;28;20059;-67
2021/07/08 00:38:03;;;;;;;3.30;3.00;;;16.80;94.60;;;;;;5085572;28;20058;-67
2021/07/08 00:40:29;;;;;;;4.32;3.30;;;16.80;94.60;;;;;;5080943;28;20048;-67
2021/07/08 00:42:55;;;;;;;4.03;2.97;;;16.70;94.60;;;;;;5083064;28;20436;-67
2021/07/08 00:45:22;;;;;;;3.20;2.90;;;16.70;94.70;;;;;;5083701;28;20013;-67
2021/07/08 00:47:48;;;;;;;3.22;2.40;;;16.70;94.80;;;;;;5087141;28;20051;-67
2021/07/08 00:50:15;;;;;;;2.97;2.25;;;16.60;94.90;;;;;;5079947;28;20016;-67
2021/07/08 00:52:41;;;;;;;2.45;2.25;;;16.60;95.00;;;;;;5080425;28;20028;-67
2021/07/08 00:55:08;;;;;;;2.85;2.55;;;16.60;95.00;;;;;;5083213;28;20035;-67
2021/07/08 00:57:34;;;;;;;3.45;1.88;;;16.60;95.10;;;;;;5083364;28;20481;-67
2021/07/08 00:59:59;;;;;;;2.97;2.67;;;16.60;95.10;;;;;;5084027;28;20059;-67
2021/07/08 01:02:27;;;;;;;2.33;2.10;;;16.50;95.30;;;;;;5085073;28;20036;-67
2021/07/08 01:04:52;;;;;;;2.53;1.95;;;16.50;95.40;;;;;;5085419;28;20024;-67
2021/07/08 01:07:23;;;;;;;1.75;1.58;;;16.50;95.50;;;;;;5089618;28;20020;-67
2021/07/08 01:09:50;;;;;;;3.20;2.30;;;16.50;95.60;;;;;;5081069;28;20025;-67
2021/07/08 01:12:16;;;;;;;3.58;3.28;;;16.50;95.60;;;;;;5084483;28;20016;-67
2021/07/08 01:14:42;;;;;;;3.83;3.42;;;16.50;95.60;;;;;;5082959;28;20185;-67
2021/07/08 01:17:09;;;;;;;4.35;3.53;;;16.50;95.60;;;;;;5082703;28;20476;-67
2021/07/08 01:19:36;;;;;;;4.32;3.92;;;16.50;95.60;;;;;;5083658;28;20061;-67
2021/07/08 01:22:03;;;;;;;4.85;3.63;;;16.60;95.60;;;;;;5088942;28;20028;-67
2021/07/08 01:24:30;;;;;;;4.30;3.90;;;16.50;95.90;;;;;;5082944;28;20020;-67
2021/07/08 01:26:57;;;;;;;4.78;4.03;;;16.60;95.70;;;;;;5083276;28;20112;-67
2021/07/08 01:29:24;;;;;;;4.28;3.88;;;16.50;95.70;;;;;;5083170;28;20507;-67
2021/07/08 01:31:49;;;;;;;3.97;3.58;;;16.50;95.70;;;;;;5080810;28;20032;-67
2021/07/08 01:34:15;;;;;;;4.25;3.70;;;16.50;95.70;;;;;;5084820;28;20477;-67
2021/07/08 01:36:41;;;;;;;4.30;3.55;;;16.50;95.80;;;;;;5082941;28;20048;-67
2021/07/08 01:39:07;;;;;;;4.60;3.95;;;16.60;95.80;;;;;;5077849;28;20035;-67
2021/07/08 01:41:32;;;;;;;4.40;3.83;;;16.50;95.90;;;;;;5082468;28;20020;-67
2021/07/08 01:44:00;;;;;;;5.82;4.32;;;16.50;95.90;;;;;;5082584;28;20021;-67
2021/07/08 01:46:25;;;;;;;6.30;4.32;;;16.50;96.00;;;;;;5080441;28;20078;-67
2021/07/08 01:48:51;;;;;;;5.18;4.22;;;16.50;96.10;;;;;;5085830;28;20016;-67
2021/07/08 01:51:31;;;;;;;7.03;3.60;;;16.50;96.20;;;;;;5081962;28;20054;-67
2021/07/08 01:53:57;;;;;;;5.47;4.32;;;16.50;96.20;;;;;;5084683;28;20012;-67
2021/07/08 01:56:24;;;;;;;4.47;4.07;;;16.50;96.30;;;;;;5082521;28;20043;-67
2021/07/08 01:58:50;;;;;;;5.93;4.10;;;16.40;96.30;;;;;;5080506;28;20488;-67
2021/07/08 02:01:16;;;;;;;4.75;3.72;;;16.40;96.40;;;;;;5076627;28;20473;-67
2021/07/08 02:03:42;;;;;;;4.55;4.10;;;16.30;96.50;;;;;;5084217;28;20066;-67
2021/07/08 02:06:08;;;;;;;4.35;3.67;;;16.40;96.60;;;;;;5081748;28;20067;-66
2021/07/08 02:08:36;;;;;;;5.15;4.13;;;16.40;96.70;;;;;;5084107;28;20076;-67
2021/07/08 02:11:05;;;;;;;4.47;4.07;;;16.40;96.70;;;;;;5081788;28;20024;-67
2021/07/08 02:13:33;;;;;;;5.43;4.18;;;16.30;96.80;;;;;;5085839;28;20024;-67
2021/07/08 02:16:00;;;;;;;3.80;3.50;;;16.30;96.90;;;;;;5084905;28;20020;-67
2021/07/08 02:18:25;;;;;;;5.80;4.00;;;16.30;97.00;;;;;;5081589;28;20028;-67
2021/07/08 02:20:51;;;;;;;4.30;3.40;;;16.30;97.30;;;;;;5087068;28;20020;-67
2021/07/08 02:23:16;;;;;;;3.38;3.08;;;16.30;97.10;;;;;;5081056;28;20052;-67
2021/07/08 02:25:42;;;;;;;4.22;3.30;;;16.30;97.20;;;;;;5083520;28;20055;-67
2021/07/08 02:28:09;;;;;;;3.85;3.13;;;16.30;97.20;;;;;;5076719;28;20070;-67
2021/07/08 02:30:35;;;;;;;5.07;3.20;;;16.30;97.30;;;;;;5081347;28;20077;-67
2021/07/08 02:33:01;;;;;;;4.97;3.47;;;16.30;97.30;;;;;;5084548;28;20008;-67
2021/07/08 02:35:27;;;;;;;3.97;3.25;;;16.30;97.30;;;;;;5076972;28;20086;-67
2021/07/08 02:37:54;;;;;;;4.00;3.10;;;16.30;97.40;;;;;;5085727;28;20027;-67
2021/07/08 02:40:28;;;;;;;4.28;3.10;;;16.30;97.40;;;;;;5081074;28;20040;-67
2021/07/08 02:42:54;;;;;;;2.95;2.75;;;16.30;97.40;;;;;;5079020;28;20028;-67
2021/07/08 02:45:23;;;;;;;3.58;2.85;;;16.30;97.40;;;;;;5078895;28;20493;-67
2021/07/08 02:47:49;;;;;;;3.47;3.17;;;16.30;97.50;;;;;;5085219;28;20024;-67
2021/07/08 02:50:15;;;;;;;3.95;3.25;;;16.30;97.50;;;;;;5083252;28;20423;-67
2021/07/08 02:52:42;;;;;;;4.70;3.40;;;16.30;97.50;;;;;;5082562;28;20013;-67
2021/07/08 02:55:08;;;;;;;4.25;3.40;;;16.30;97.60;;;;;;5082070;28;20058;-67
2021/07/08 02:57:34;;;;;;;3.67;3.30;;;16.30;97.60;;;;;;5080395;28;20024;-67
2021/07/08 02:59:59;;;;;;;3.88;3.35;;;16.30;97.70;;;;;;5084408;28;20028;-67
2021/07/08 03:02:25;;;;;;;3.72;3.20;;;16.30;97.70;;;;;;5079999;28;20036;-66
2021/07/08 03:04:50;;;;;;;5.40;3.65;;;16.30;97.70;;;;;;5080809;28;20020;-67
2021/07/08 03:07:17;;;;;;;5.70;4.00;;;16.30;97.70;;;;;;5081815;28;20485;-67
2021/07/08 03:09:43;;;;;;;4.10;3.70;;;16.30;97.70;;;;;;5078893;28;20473;-67
2021/07/08 03:12:10;;;;;;;4.13;3.72;;;16.30;97.80;;;;;;5084955;28;20027;-67
2021/07/08 03:14:35;;;;;;;4.40;3.78;;;16.30;97.80;;;;;;5086182;28;20023;-67
2021/07/08 03:17:01;;;;;;;4.22;3.78;;;16.30;97.90;;;;;;5083090;28;20021;-67
2021/07/08 03:19:26;;;;;;;4.50;3.83;;;16.30;97.90;;;;;;5084958;28;20047;-67
2021/07/08 03:21:52;;;;;;;4.30;3.65;;;16.30;97.90;;;;;;5082225;28;20099;-67
2021/07/08 03:24:17;;;;;;;4.30;3.90;;;16.40;97.90;;;;;;5078270;28;20099;-67
2021/07/08 03:26:43;;;;;;;4.32;3.88;;;16.40;98.00;;;;;;5086527;28;20480;-67
2021/07/08 03:29:09;;;;;;;3.75;3.45;;;16.40;98.00;;;;;;5086173;28;20016;-67
2021/07/08 03:31:35;;;;;;;4.78;3.78;;;16.40;98.00;;;;;;5089303;28;20020;-67
2021/07/08 03:34:00;;;;;;;5.85;4.47;;;16.40;98.10;;;;;;5082109;28;20019;-67
2021/07/08 03:36:26;;;;;;;5.53;4.25;;;16.30;98.20;;;;;;5089441;28;20111;-67
2021/07/08 03:38:51;;;;;;;4.25;3.75;;;16.20;98.40;;;;;;5083134;28;20044;-67
2021/07/08 03:41:17;;;;;;;4.43;4.03;;;16.20;98.50;;;;;;5085868;28;20455;-67
2021/07/08 03:43:43;;;;;;;4.68;4.18;;;16.10;98.60;;;;;;5082258;28;20077;-67
2021/07/08 03:46:09;;;;;;;4.82;4.38;;;16.10;98.80;;;;;;5088398;28;20032;-67
2021/07/08 03:48:34;;;;;;;4.68;4.13;;;16.10;98.90;;;;;;5083700;28;20017;-67
2021/07/08 03:51:00;;;;;;;4.97;4.25;;;16.10;98.90;;;;;;5085899;28;20021;-67
2021/07/08 03:53:25;;;;;;;4.07;3.67;;;16.10;99.00;;;;;;5084050;28;20432;-67
2021/07/08 03:55:51;;;;;;;5.10;4.10;;;16.10;99.00;;;;;;5084512;28;20427;-67
2021/07/08 03:58:16;;;;;;;3.67;3.33;;;16.20;99.10;;;;;;5087797;28;20074;-67
2021/07/08 04:00:42;;;;;;;5.40;3.67;;;16.20;99.10;;;;;;5079261;28;20446;-67
2021/07/08 04:03:15;;;;;;;3.92;3.35;;;16.30;99.10;;;;;;5088088;28;20036;-67
2021/07/08 04:05:42;;;;;;;4.47;3.53;;;16.30;99.10;;;;;;5084418;28;20414;-67
2021/07/08 04:08:08;;;;;;;4.60;3.35;;;16.30;99.10;;;;;;5085800;28;20024;-67
2021/07/08 04:10:36;;;;;;;4.82;3.55;;;16.30;99.10;;;;;;5086863;28;20380;-67
2021/07/08 04:13:09;;;;;;;3.72;3.42;;;16.30;99.10;;;;;;5082630;28;20462;-67
2021/07/08 04:15:34;;;;;;;3.75;3.28;;;16.40;99.20;;;;;;5080726;28;20029;-67
2021/07/08 04:18:01;;;;;;;4.97;4.30;;;16.40;99.10;;;;;;5085679;28;20115;-67
2021/07/08 04:20:27;;;;;;;4.10;3.70;;;16.40;99.20;;;;;;5084834;28;20028;-67
2021/07/08 04:22:53;;;;;;;3.80;3.25;;;16.40;99.20;;;;;;5081678;28;20074;-67
2021/07/08 04:25:19;;;;;;;3.95;3.42;;;16.50;99.20;;;;;;5079828;28;20106;-67
2021/07/08 04:27:45;;;;;;;4.20;3.80;;;16.50;99.20;;;;;;5086059;28;20469;-67
2021/07/08 04:30:14;;;;;;;6.88;3.72;;;16.50;99.20;;;;;;5082465;28;20025;-67
2021/07/08 04:32:40;;;;;;;4.30;3.83;;;16.50;99.10;;;;;;5086575;28;20089;-67
2021/07/08 04:35:08;;;;;;;4.47;3.72;;;16.60;99.10;;;;;;5087804;28;20259;-66
2021/07/08 04:37:41;;;;;;;4.65;3.88;;;16.60;99.10;;;;;;5084153;28;20179;-67
2021/07/08 04:40:13;;;;;;;6.72;4.78;;;16.70;99.10;;;;;;5087302;28;20024;-67
2021/07/08 04:42:39;;;;;;;4.97;4.47;;;16.70;99.10;;;;;;5083034;28;20024;-67
2021/07/08 04:45:06;;;;;;;4.32;3.92;;;16.80;99.20;;;;;;5086864;28;20027;-67
2021/07/08 04:47:32;;;;;;;6.07;4.57;;;16.80;99.20;;;;;;5080471;28;20035;-67
2021/07/08 04:49:57;;;;;;;5.35;4.78;;;16.90;99.20;;;;;;5085643;28;20025;-67
2021/07/08 04:52:23;;;;;;;5.28;4.70;;;16.90;99.20;;;;;;5082908;28;20485;-67
2021/07/08 04:54:48;;;;;;;7.05;6.35;;;17.00;99.20;;;;;;5084877;28;20119;-67
2021/07/08 04:57:17;;;;;;;8.43;7.10;;;17.10;99.20;;;;;;5087052;28;20374;-67
2021/07/08 04:59:42;;;;;;;9.40;6.68;;;17.10;99.20;;;;;;5082256;28;20024;-67
2021/07/08 05:02:08;;;;;;;7.95;6.00;;;17.10;99.30;;;;;;5085559;28;20059;-67
2021/07/08 05:04:34;;;;;;;7.10;5.93;;;17.10;99.30;;;;;;5077284;28;20072;-67
2021/07/08 05:06:59;;;;;;;9.48;7.32;;;17.10;99.30;;;;;;5080611;28;20052;-67
2021/07/08 05:09:25;;;;;;;7.20;6.20;;;17.10;99.40;;;;;;5093542;28;20020;-67
2021/07/08 05:11:50;;;;;;;9.27;6.90;;;17.10;99.50;;;;;;5094168;28;20027;-67
2021/07/08 05:14:16;;;;;;;9.95;6.72;;;17.10;99.60;;;;;;5093909;28;20028;-67
2021/07/08 05:16:41;;;;;;;9.05;6.88;;;17.00;99.70;;;;;;5094290;28;20070;-67
2021/07/08 05:19:07;;;;;;;8.00;7.20;;;17.00;99.80;;;;;;5094094;28;20028;-67
2021/07/08 05:21:33;;;;;;;7.65;6.78;;;17.00;99.90;;;;;;5092673;28;20024;-67
2021/07/08 05:24:01;;;;;;;8.88;6.57;;;17.00;99.90;;;;;;5093905;28;20032;-67
2021/07/08 05:26:27;;;;;;;8.90;5.75;;;17.10;99.90;;;;;;5092555;28;20032;-67
2021/07/08 05:28:53;;;;;;;5.68;5.18;;;17.20;99.90;;;;;;5093641;28;20072;-67
2021/07/08 05:31:19;;;;;;;6.07;5.32;;;17.30;99.90;;;;;;5093876;28;20028;-67
2021/07/08 05:33:45;;;;;;;6.07;5.18;;;17.30;99.90;;;;;;5093658;28;20077;-67
2021/07/08 05:36:10;;;;;;;5.32;4.88;;;17.30;99.90;;;;;;5092311;28;20050;-67
2021/07/08 05:38:36;;;;;;;5.70;5.10;;;17.30;99.90;;;;;;5093617;28;20035;-67
2021/07/08 05:41:01;;;;;;;6.03;5.43;;;17.40;99.90;;;;;;5092378;28;20030;-67
2021/07/08 05:43:27;;;;;;;5.93;5.25;;;17.40;99.90;;;;;;5091922;28;20460;-67
2021/07/08 05:45:52;;;;;;;6.70;6.07;;;17.50;99.90;;;;;;5092970;28;20020;-67
2021/07/08 05:48:19;;;;;;;6.38;5.78;;;17.50;99.90;;;;;;5092346;28;20012;-67
2021/07/08 05:50:45;;;;;;;6.95;6.25;;;17.60;99.90;;;;;;5090254;28;20020;-67
2021/07/08 05:53:10;;;;;;;6.68;6.07;;;17.60;99.90;;;;;;5093467;28;20035;-67
2021/07/08 05:55:36;;;;;;;6.72;6.03;;;17.60;99.90;;;;;;5093353;28;20020;-67
2021/07/08 05:58:01;;;;;;;8.30;7.28;;;17.60;99.90;;;;;;5091950;28;20503;-67
2021/07/08 06:00:27;;;;;;;8.65;7.82;;;17.70;99.90;;;;;;5093307;28;20062;-67
2021/07/08 06:02:52;;;;;;;8.65;7.75;;;17.70;99.90;;;;;;5093076;28;20012;-67
2021/07/08 06:05:18;;;;;;;8.85;8.05;;;17.70;99.90;;;;;;5093346;28;20499;-67
2021/07/08 06:07:44;;;;;;;8.77;7.28;;;17.70;99.90;;;;;;5093021;28;20031;-67
2021/07/08 06:10:10;;;;;;;8.18;7.38;;;17.80;99.90;;;;;;5093220;28;20501;-68
2021/07/08 06:12:37;;;;;;;9.10;7.57;;;17.80;99.90;;;;;;5087667;28;20016;-67
2021/07/08 06:15:03;;;;;;;9.05;6.57;;;17.80;99.90;;;;;;5092954;28;20385;-68
2021/07/08 06:17:28;;;;;;;9.05;7.20;;;17.90;99.90;;;;;;5091247;28;20030;-68
2021/07/08 06:19:54;;;;;;;8.43;7.60;;;17.90;99.90;;;;;;5091146;28;20024;-68
2021/07/08 06:22:20;;;;;;;7.80;6.90;;;17.90;99.90;;;;;;5092562;28;20095;-68
2021/07/08 06:24:45;;;;;;;8.80;7.70;;;17.90;99.90;;;;;;5092425;28;20506;-68
2021/07/08 06:27:11;;;;;;;9.75;8.15;;;18.00;99.90;;;;;;5092765;28;20061;-68
2021/07/08 06:29:36;;;;;;;8.25;7.40;;;18.00;99.90;;;;;;5091187;28;20043;-68
2021/07/08 06:32:02;;;;;;;8.18;6.93;;;18.10;99.90;;;;;;5092036;28;20086;-68
2021/07/08 06:34:28;;;;;;;7.90;6.72;;;18.10;99.90;;;;;;5091818;28;20573;-68
2021/07/08 06:36:53;;;;;;;11.40;8.55;;;18.20;99.90;;;;;;5091496;28;20056;-68
2021/07/08 06:39:19;;;;;;;9.00;8.10;;;18.20;99.80;;;;;;5089437;28;20024;-68
2021/07/08 06:41:44;;;;;;;10.35;8.57;;;18.20;99.70;;;;;;5091793;28;20063;-68
2021/07/08 06:44:10;;;;;;;9.10;7.60;;;18.30;99.70;;;;;;5083971;28;20104;-68
2021/07/08 06:46:36;;;;;;;7.70;7.00;;;18.30;99.60;;;;;;5077591;28;20067;-68
2021/07/08 06:49:01;;;;;;;10.55;9.45;;;18.40;99.50;;;;;;5071711;28;20021;-68
2021/07/08 06:51:28;;;;;;;11.18;7.65;;;18.50;99.30;;;;;;5071723;28;20020;-68
2021/07/08 06:53:55;;;;;;;9.63;8.63;;;18.50;99.20;;;;;;5071731;28;20505;-68
2021/07/08 06:56:21;;;;;;;7.88;7.13;;;18.60;99.00;;;;;;5078044;28;20027;-69
2021/07/08 06:58:47;;;;;;;10.50;7.20;;;18.70;98.80;;;;;;5093537;28;20032;-68
2021/07/08 07:01:12;;;;;;;12.30;8.32;;;18.70;98.60;;;;;;5095254;28;20099;-67
2021/07/08 07:03:38;;;;;;;9.90;7.78;;;18.80;98.40;;;;;;5096329;28;20028;-67
2021/07/08 07:06:04;;;;;;;9.68;8.15;;;18.90;98.30;;;;;;5088613;28;20043;-67
2021/07/08 07:08:30;;;;;;;7.80;6.43;;;18.90;98.20;;;;;;5088919;28;20252;-67
2021/07/08 07:10:56;;;;;;;9.57;8.52;;;19.00;98.10;;;;;;5095891;28;20028;-67
2021/07/08 07:13:22;;;;;;;11.68;7.60;;;19.10;98.00;;;;;;5095189;28;20016;-67
2021/07/08 07:15:47;;;;;;;10.43;8.40;;;19.10;97.90;;;;;;5095480;28;20028;-67
2021/07/08 07:18:13;;;;;;;10.32;8.30;;;19.20;97.80;;;;;;5078511;28;20929;-67
2021/07/08 07:20:38;;;;;;;8.73;7.38;;;19.30;97.60;;;;;;5093097;28;20039;-67
2021/07/08 07:23:04;;;;;;;9.82;7.53;;;19.30;97.40;;;;;;5095129;28;20035;-67
2021/07/08 07:25:31;;;;;;;9.05;7.90;;;19.40;97.20;;;;;;5094684;28;20031;-67
2021/07/08 07:27:56;;;;;;;8.07;7.18;;;19.50;97.00;;;;;;5095206;28;20115;-67
2021/07/08 07:30:24;;;;;;;6.85;6.07;;;19.50;96.80;;;;;;5095023;28;20099;-67
2021/07/08 07:32:51;;;;;;;6.45;5.85;;;19.60;96.70;;;;;;5093666;28;20027;-67
2021/07/08 07:35:17;;;;;;;8.40;5.65;;;19.70;96.60;;;;;;5095020;28;20024;-67
2021/07/08 07:37:43;;;;;;;5.90;5.30;;;19.80;96.40;;;;;;5094742;28;20097;-67
2021/07/08 07:40:09;;;;;;;6.05;5.43;;;19.80;96.30;;;;;;5093592;28;20031;-67
2021/07/08 07:42:35;;;;;;;10.38;7.00;;;19.90;96.20;;;;;;5094782;28;20542;-67
2021/07/08 07:45:06;;;;;;;7.70;6.00;;;20.00;95.80;;;;;;5094161;28;20050;-67
2021/07/08 07:47:31;;;;;;;5.78;5.07;;;20.00;95.70;;;;;;5095629;28;20031;-67
2021/07/08 07:49:59;;;;;;;6.82;4.38;;;20.00;95.50;;;;;;5095223;28;20020;-67
2021/07/08 07:52:25;;;;;;;6.72;5.13;;;20.10;95.50;;;;;;5094858;28;20019;-67
2021/07/08 07:54:50;;;;;;;5.55;4.50;;;20.20;95.40;;;;;;5093782;28;20020;-67
2021/07/08 07:57:16;;;;;;;7.50;6.15;;;20.30;95.20;;;;;;5094975;28;20032;-67
2021/07/08 07:59:42;;;;;;;8.93;7.00;;;20.40;94.90;;;;;;5095225;28;20099;-67
2021/07/08 08:02:12;;;;;;;9.48;6.38;;;20.50;94.70;;;;;;5094776;28;20036;-67
2021/07/08 08:04:43;;;;;;;10.43;6.22;;;20.50;94.40;;;;;;5095203;28;20024;-67
2021/07/08 08:09:54;;;;;;;8.43;5.28;;;20.70;94.00;;;;;;5094758;28;20080;-67
2021/07/08 08:12:20;;;;;;;9.13;6.28;;;20.80;93.70;;;;;;5094920;28;20036;-67
2021/07/08 08:14:46;;;;;;;8.35;5.93;;;21.00;93.50;;;;;;5093344;28;20024;-67
2021/07/08 08:17:12;;;;;;;6.30;5.45;;;21.10;93.30;;;;;;5095087;28;20157;-67
2021/07/08 08:19:38;;;;;;;8.13;5.45;;;21.30;93.30;;;;;;5095006;28;20076;-67
2021/07/08 08:22:05;;;;;;;8.52;5.07;;;21.40;93.10;;;;;;5095123;28;20035;-67
2021/07/08 08:24:31;;;;;;;7.45;6.40;;;21.50;93.00;;;;;;5095075;28;20035;-67
2021/07/08 08:26:56;;;;;;;6.07;5.47;;;21.60;92.80;;;;;;5094748;28;20393;-67
2021/07/08 08:29:24;;;;;;;7.70;5.20;;;21.70;92.60;;;;;;5094650;28;20499;-67
2021/07/08 08:31:50;;;;;;;5.65;4.30;;;21.90;92.50;;;;;;5094584;28;20490;-67
2021/07/08 08:34:15;;;;;;;5.80;4.50;;;22.00;92.50;;;;;;5093089;28;20052;-67
2021/07/08 08:36:41;;;;;;;6.15;4.00;;;22.10;92.30;;;;;;5094507;28;20044;-67
2021/07/08 08:39:06;;;;;;;4.15;3.08;;;22.20;92.20;;;;;;5094597;28;20039;-67
2021/07/08 08:41:33;;;;;;;3.85;2.70;;;22.40;91.90;;;;;;5094672;28;20020;-67
2021/07/08 08:43:58;;;;;;;4.57;3.22;;;22.50;91.50;;;;;;5094650;28;20052;-67
2021/07/08 08:46:24;;;;;;;5.68;2.63;;;22.60;91.30;;;;;;5094371;28;20544;-67
2021/07/08 08:48:50;;;;;;;4.15;2.88;;;22.80;90.90;;;;;;5094293;28;20069;-67
2021/07/08 08:51:17;;;;;;;4.90;3.13;;;22.90;90.50;;;;;;5093185;28;20550;-67
2021/07/08 08:53:42;;;;;;;3.03;2.70;;;23.00;90.10;;;;;;5093662;28;20500;-67
2021/07/08 08:56:08;;;;;;;3.70;2.67;;;23.00;89.80;;;;;;5094094;28;20016;-67
2021/07/08 08:58:33;;;;;;;4.00;2.90;;;23.10;89.60;;;;;;5088395;28;20029;-68
2021/07/08 09:01:05;;;;;;;3.80;2.20;;;23.10;89.00;;;;;;5073432;28;20013;-69
2021/07/08 09:03:32;;;;;;;5.22;2.20;;;23.20;88.90;;;;;;5074014;28;20029;-68
2021/07/08 09:06:00;;;;;;;3.10;2.05;;;23.30;88.20;;;;;;5073717;28;20029;-68
2021/07/08 09:08:26;;;;;;;4.13;1.73;;;23.40;87.60;;;;;;5073668;28;20017;-68
2021/07/08 09:11:14;;;;;;;2.85;1.83;;;23.50;87.20;;;;;;5074876;28;20025;-68
2021/07/08 09:13:44;;;;;;;4.53;1.70;;;23.70;86.40;;;;;;5087247;28;20099;-68
2021/07/08 09:16:11;;;;;;;4.93;2.35;;;23.70;85.40;;;;;;5091883;28;20024;-68
2021/07/08 09:18:37;;;;;;;3.08;1.75;;;23.70;84.50;;;;;;5092559;28;20285;-67
2021/07/08 09:21:18;;;;;;;3.78;1.98;;;23.80;84.40;;;;;;5093860;28;20047;-67
2021/07/08 09:24:21;;;;;;;2.85;1.92;;;23.90;83.60;;;;;;5089781;28;20396;-67
2021/07/08 09:27:03;;;;;;;3.03;1.98;;;24.00;82.60;;;;;;5078578;28;20028;-67
2021/07/08 09:29:34;;;;;;;2.90;1.50;;;24.00;82.00;;;;;;5076346;28;20016;-67
2021/07/08 09:32:04;;;;;;;2.22;1.35;;;24.20;82.00;;;;;;5093313;28;20103;-67
2021/07/08 09:34:35;;;;;;;3.35;1.80;;;24.20;81.90;;;;;;5093284;28;20016;-72
2021/07/08 09:37:21;;;;;;;4.38;1.88;;;24.30;81.30;;;;;;5084589;28;20401;-72
2021/07/08 09:39:49;;;;;;;2.08;1.50;;;24.40;80.60;;;;;;5084636;28;20027;-73
2021/07/08 09:42:41;;;;;;;3.90;1.40;;;24.50;80.70;;;;;;5081573;28;20016;-71
2021/07/08 09:45:17;;;;;;;2.42;1.60;;;24.60;80.10;;;;;;5082495;28;20273;-71
2021/07/08 09:47:45;;;;;;;4.30;1.83;;;24.60;79.60;;;;;;5077810;28;20101;-71
2021/07/08 09:50:35;;;;;;;3.33;1.42;;;24.60;78.80;;;;;;5085594;28;20124;-71
2021/07/08 09:53:06;;;;;;;2.67;1.70;;;24.70;78.50;;;;;;5093130;28;20485;-72
2021/07/08 09:56:02;;;;;;;3.15;1.85;;;24.60;78.10;;;;;;5093611;28;20031;-72
2021/07/08 09:58:28;;;;;;;3.13;1.63;;;24.70;76.90;;;;;;5092009;28;20016;-72
2021/07/08 10:00:54;;;;;;;3.45;2.28;;;24.70;77.40;;;;;;5092724;28;20023;-72
2021/07/08 10:03:20;;;;;;;2.53;1.55;;;24.80;76.30;;;;;;5087887;28;20013;-72
2021/07/08 10:05:46;;;;;;;1.95;1.33;;;24.90;75.60;;;;;;5076736;28;20036;-72
2021/07/08 10:08:12;;;;;;;2.75;1.35;;;25.00;75.20;;;;;;5076761;28;20040;-71
2021/07/08 10:10:39;;;;;;;2.33;1.20;;;25.10;74.70;;;;;;5092253;28;20051;-71
2021/07/08 10:13:07;;;;;;;1.92;1.15;;;25.20;74.90;;;;;;5092657;28;20035;-71
2021/07/08 10:15:35;;;;;;;2.58;1.10;;;25.30;74.90;;;;;;5092809;28;20074;-71
2021/07/08 10:18:04;;;;;;;2.15;1.10;;;25.40;74.90;;;;;;5092441;28;20028;-72
2021/07/08 10:20:30;;;;;;;2.30;1.48;;;25.60;74.30;;;;;;5091327;28;20028;-73
2021/07/08 10:22:58;;;;;;;2.92;1.23;;;25.70;73.50;;;;;;5091393;28;20484;-71
2021/07/08 10:25:23;;;;;;;1.92;1.52;;;25.80;72.70;;;;;;5092875;28;20094;-71
2021/07/08 10:27:49;;;;;;;2.38;1.63;;;25.80;72.00;;;;;;5092654;28;20476;-71
2021/07/08 10:30:20;;;;;;;2.47;1.52;;;25.80;70.70;;;;;;5092676;28;20027;-71
2021/07/08 10:32:53;;;;;;;5.18;1.55;;;25.90;71.10;;;;;;5076610;28;20056;-71
2021/07/08 10:35:43;;;;;;;2.67;1.30;;;26.00;70.40;;;;;;5073231;28;20016;-71
2021/07/08 10:38:27;;;;;;;3.13;1.50;;;26.10;70.10;;;;;;5091292;28;20036;-71
2021/07/08 10:40:57;;;;;;;2.28;1.50;;;26.10;69.30;;;;;;5080676;28;20033;-71
2021/07/08 10:43:42;;;;;;;2.22;1.38;;;26.20;69.20;;;;;;5074986;28;20027;-71
2021/07/08 10:46:13;;;;;;;1.65;0.90;;;26.40;69.00;;;;;;5084909;28;20024;-71
2021/07/08 10:48:43;;;;;;;1.88;1.08;;;26.50;69.10;;;;;;5079357;28;20085;-71
2021/07/08 10:51:15;;;;;;;2.30;1.00;;;26.60;69.00;;;;;;5091470;28;20039;-71
2021/07/08 10:53:42;;;;;;;3.25;1.40;;;26.80;68.80;;;;;;5089156;28;20032;-71
2021/07/08 10:56:12;;;;;;;2.65;1.77;;;26.90;67.80;;;;;;5071360;28;20012;-71
2021/07/08 10:58:44;;;;;;;3.97;1.63;;;27.00;66.40;;;;;;5074673;28;20016;-71
2021/07/08 11:01:31;;;;;;;2.33;1.67;;;27.00;65.80;;;;;;5074892;28;20021;-71
2021/07/08 11:04:02;;;;;;;4.45;1.50;;;27.10;66.00;;;;;;5071806;28;20020;-71
2021/07/08 11:06:45;;;;;;;2.92;1.20;;;27.10;65.40;;;;;;5074931;28;20054;-72
2021/07/08 11:09:17;;;;;;;2.10;1.25;;;27.20;65.00;;;;;;5089566;28;20025;-71
2021/07/08 11:11:45;;;;;;;1.63;0.88;;;27.30;64.70;;;;;;5088619;28;20024;-71
2021/07/08 11:14:12;;;;;;;1.10;0.85;;;27.40;64.80;;;;;;5087496;28;20012;-72
2021/07/08 11:16:44;;;;;;;1.63;0.90;;;27.50;64.80;;;;;;5085784;28;20430;-71
2021/07/08 11:19:19;;;;;;;1.90;1.13;;;27.70;64.40;;;;;;5076613;28;20046;-71
2021/07/08 11:21:55;;;;;;;1.00;0.90;;;27.80;64.10;;;;;;5076390;28;20029;-71
2021/07/08 11:24:41;;;;;;;1.60;1.13;;;27.90;63.40;;;;;;5077269;28;20024;-72
2021/07/08 11:27:09;;;;;;;2.20;1.13;;;28.00;61.90;;;;;;5080200;28;20384;-72
2021/07/08 11:29:48;;;;;;;2.55;0.98;;;28.10;61.40;;;;;;5075119;28;20020;-72
2021/07/08 11:32:27;;;;;;;1.75;1.00;;;28.10;60.70;;;;;;5079378;28;20028;-72
2021/07/08 11:34:58;;;;;;;;;;;28.20;60.40;;;;;;5091797;28;20494;-73
2021/07/08 11:37:39;;;;;;;3.28;1.02;;;28.10;60.60;;;;;;5091621;28;19916;-73
2021/07/08 11:40:18;;;;;;;2.58;1.27;;;28.20;60.70;;;;;;5090642;28;20086;-73
2021/07/08 11:42:46;;;;;;;2.00;1.20;;;28.30;60.00;;;;;;5090382;28;20028;-73
2021/07/08 11:45:18;;;;;;;1.20;1.00;;;28.30;59.90;;;;;;5091101;28;20107;-74
2021/07/08 11:47:46;;;;;;;2.63;1.38;;;28.50;59.40;;;;;;5095178;28;20017;-74
2021/07/08 11:50:23;;;;;;;2.92;1.30;;;28.50;58.90;;;;;;5094150;28;20393;-74
2021/07/08 11:53:10;;;;;;;1.95;1.20;;;28.70;58.60;;;;;;5093796;28;20404;-74
2021/07/08 11:55:38;;;;;;;1.73;1.10;;;28.90;58.60;;;;;;5086183;28;20450;-73
2021/07/08 11:58:04;;;;;;;1.57;0.80;;;29.00;58.60;;;;;;5079513;28;20056;-74
2021/07/08 12:00:47;;;;;;;1.55;0.90;;;29.00;59.30;;;;;;5086538;28;20063;-75
2021/07/08 12:03:23;;;;;;;1.38;0.90;;;29.20;59.20;;;;;;5081363;28;20035;-75
2021/07/08 12:06:10;;;;;;;1.23;0.70;;;29.40;58.70;;;;;;5082808;28;20020;-74
2021/07/08 12:08:42;;;;;;;2.08;1.10;;;29.50;58.80;;;;;;5094983;28;20040;-75
2021/07/08 12:11:14;;;;;;;1.13;1.02;;;29.70;58.30;;;;;;5095202;28;20030;-74
2021/07/08 12:14:06;;;;;;;3.85;1.27;;;29.80;56.90;;;;;;5095342;28;20115;-74
2021/07/08 12:16:32;;;;;;;2.88;1.38;;;29.90;55.90;;;;;;5095242;28;20012;-74
2021/07/08 12:19:00;;;;;;;1.13;0.90;;;30.00;56.00;;;;;;5093785;28;20138;-74
2021/07/08 12:21:33;;;;;;;1.83;0.85;;;30.00;56.10;;;;;;5093756;28;20020;-74
2021/07/08 12:24:03;;;;;;;1.25;0.82;;;30.10;55.90;;;;;;5093566;28;20027;-75
2021/07/08 12:26:33;;;;;;;2.60;1.20;;;30.10;56.00;;;;;;5095007;28;20031;-76
2021/07/08 12:29:21;;;;;;;2.13;1.05;;;30.10;55.60;;;;;;5093686;28;20481;-76
2021/07/08 12:32:08;;;;;;;2.03;1.20;;;30.10;55.60;;;;;;5083532;28;20118;-75
2021/07/08 12:34:53;;;;;;;3.63;1.20;;;30.10;55.10;;;;;;5093544;28;20027;-76
2021/07/08 12:37:31;;;;;;;2.28;1.00;;;30.00;54.30;;;;;;5094636;28;20048;-75
2021/07/08 12:40:11;;;;;;;3.13;1.25;;;30.00;54.30;;;;;;5094682;28;20107;-75
2021/07/08 12:42:43;;;;;;;1.85;1.13;;;29.90;54.20;;;;;;5094672;28;20129;-76
2021/07/08 12:45:14;;;;;;;2.25;1.10;;;29.90;54.40;;;;;;5094586;28;20473;-75
2021/07/08 12:47:50;;;;;;;1.90;0.95;;;29.90;54.30;;;;;;5094430;28;20495;-75
2021/07/08 12:50:19;;;;;;;2.72;1.70;;;29.90;54.30;;;;;;5080433;28;20034;-74
2021/07/08 12:52:45;;;;;;;2.28;1.70;;;30.10;53.70;;;;;;5093187;28;20020;-75
2021/07/08 12:55:43;;;;;;;1.67;0.93;;;30.00;53.60;;;;;;5094215;28;20500;-75